createdAt,value
2019-06-26T00:05:05.093Z,14
2019-06-26T00:10:05.093Z,15
2019-06-26T00:15:05.104Z,17
2019-06-26T00:20:05.104Z,15
2019-06-26T00:25:05.097Z,15
2019-06-26T00:30:05.101Z,16
2019-06-26T00:35:05.098Z,14
2019-06-26T00:40:05.114Z,16
2019-06-26T00:45:05.102Z,15
2019-06-26T00:55:05.102Z,14
2019-06-26T01:00:05.116Z,15
2019-06-26T01:05:05.106Z,15
2019-06-26T01:10:05.109Z,15
2019-06-26T01:15:05.105Z,16
2019-06-26T01:20:05.107Z,17
2019-06-26T01:25:05.106Z,17
2019-06-26T01:30:05.134Z,16
2019-06-26T01:35:05.153Z,19
2019-06-26T01:40:05.137Z,16
2019-06-26T01:45:05.118Z,18
2019-06-26T01:50:05.123Z,17
2019-06-26T01:55:05.114Z,20
2019-06-26T02:00:05.119Z,19
2019-06-26T02:05:05.114Z,20
2019-06-26T02:10:05.114Z,19
2019-06-26T02:15:05.119Z,20
2019-06-26T02:20:05.120Z,19
2019-06-26T02:25:05.115Z,19
2019-06-26T02:30:05.118Z,19
2019-06-26T02:35:09.280Z,21
2019-06-26T02:40:05.138Z,19
2019-06-26T02:45:05.135Z,19
2019-06-26T02:50:05.136Z,19
2019-06-26T02:55:05.120Z,20
2019-06-26T03:00:05.238Z,21
2019-06-26T03:05:05.120Z,19
2019-06-26T03:10:05.132Z,20
2019-06-26T03:15:09.054Z,19
2019-06-26T03:20:05.127Z,18
2019-06-26T03:25:05.128Z,20
2019-06-26T03:30:05.139Z,18
2019-06-26T03:35:05.128Z,17
2019-06-26T03:40:05.136Z,18
2019-06-26T03:45:05.135Z,21
2019-06-26T03:50:05.130Z,20
2019-06-26T03:55:05.133Z,22
2019-06-26T04:00:05.136Z,22
2019-06-26T04:10:05.142Z,25
2019-06-26T04:15:05.137Z,22
2019-06-26T04:20:05.156Z,21
2019-06-26T04:25:05.133Z,19
2019-06-26T04:30:05.139Z,20
2019-06-26T04:35:05.136Z,21
2019-06-26T04:40:05.136Z,19
2019-06-26T04:45:05.175Z,20
2019-06-26T04:50:05.140Z,19
2019-06-26T05:00:05.147Z,19
2019-06-26T05:05:05.145Z,21
2019-06-26T05:10:05.154Z,18
2019-06-26T05:15:05.142Z,19
2019-06-26T05:20:05.147Z,19
2019-06-26T05:25:05.146Z,20
2019-06-26T05:30:05.148Z,19
2019-06-26T05:35:05.148Z,18
2019-06-26T05:40:05.147Z,19
2019-06-26T05:45:05.258Z,18
2019-06-26T05:50:05.150Z,17
2019-06-26T05:55:05.163Z,16
2019-06-26T06:00:05.199Z,17
2019-06-26T06:05:05.403Z,18
2019-06-26T06:10:05.152Z,17
2019-06-26T06:15:05.154Z,16
2019-06-26T06:20:05.180Z,18
2019-06-26T06:25:05.154Z,18
2019-06-26T06:35:05.158Z,17
2019-06-26T06:40:05.159Z,15
2019-06-26T06:45:05.173Z,15
2019-06-26T06:50:05.161Z,15
2019-06-26T06:55:05.160Z,14
2019-06-26T07:00:05.159Z,13
2019-06-26T07:05:05.160Z,15
2019-06-26T07:10:05.196Z,16
2019-06-26T07:15:05.162Z,15
2019-06-26T07:20:05.160Z,15
2019-06-26T07:25:05.163Z,14
2019-06-26T07:30:05.175Z,15
2019-06-26T07:35:05.165Z,16
2019-06-26T07:40:05.170Z,16
2019-06-26T07:45:05.218Z,16
2019-06-26T07:50:05.171Z,16
2019-06-26T07:55:05.173Z,16
2019-06-26T08:00:05.174Z,15
2019-06-26T08:05:05.181Z,14
2019-06-26T08:10:05.203Z,16
2019-06-26T08:15:05.197Z,15
2019-06-26T08:20:05.181Z,16
2019-06-26T08:25:05.185Z,16
2019-06-26T08:30:05.212Z,16
2019-06-26T08:35:05.192Z,15
2019-06-26T08:40:05.185Z,14
2019-06-26T08:45:05.216Z,14
2019-06-26T08:50:05.193Z,14
2019-06-26T08:55:05.195Z,14
2019-06-26T09:00:05.201Z,14
2019-06-26T09:05:05.190Z,13
2019-06-26T09:10:05.191Z,15
2019-06-26T09:15:05.193Z,16
2019-06-26T09:20:05.191Z,14
2019-06-26T09:25:20.086Z,15
2019-06-26T09:30:05.193Z,16
2019-06-26T09:35:05.193Z,15
2019-06-26T09:40:05.196Z,17
2019-06-26T09:45:05.217Z,17
2019-06-26T09:50:05.204Z,18
2019-06-26T09:55:05.199Z,16
2019-06-26T10:00:05.206Z,16
2019-06-26T10:05:05.248Z,19
2019-06-26T10:10:05.220Z,17
2019-06-26T10:15:05.216Z,16
2019-06-26T10:20:05.227Z,16
2019-06-26T10:25:05.218Z,12
2019-06-26T10:30:05.220Z,14
2019-06-26T10:35:05.220Z,14
2019-06-26T10:40:05.224Z,14
2019-06-26T10:45:05.230Z,15
2019-06-26T10:50:05.234Z,13
2019-06-26T10:55:05.232Z,18
2019-06-26T11:00:05.232Z,14
2019-06-26T11:05:05.236Z,13
2019-06-26T11:10:05.237Z,13
2019-06-26T11:15:05.248Z,12
2019-06-26T11:20:05.238Z,11
2019-06-26T11:25:05.239Z,13
2019-06-26T11:30:05.246Z,12
2019-06-26T11:35:05.245Z,13
2019-06-26T11:40:05.270Z,11
2019-06-26T11:45:05.244Z,12
2019-06-26T11:50:05.252Z,13
2019-06-26T11:55:05.253Z,12
2019-06-26T12:00:05.548Z,12
2019-06-26T12:05:05.252Z,13
2019-06-26T12:10:05.334Z,12
2019-06-26T12:15:05.255Z,14
2019-06-26T12:20:17.551Z,12
2019-06-26T12:25:05.269Z,13
2019-06-26T12:30:05.254Z,11
2019-06-26T12:35:05.261Z,12
2019-06-26T12:40:05.255Z,12
2019-06-26T12:45:05.286Z,10
2019-06-26T12:50:05.256Z,10
2019-06-26T12:55:05.261Z,12
2019-06-26T13:00:05.263Z,10
2019-06-26T13:05:05.267Z,11
2019-06-26T13:10:07.439Z,11
2019-06-26T13:20:07.097Z,13
2019-06-26T13:25:05.261Z,12
2019-06-26T13:30:05.268Z,10
2019-06-26T13:35:05.261Z,10
2019-06-26T13:40:05.269Z,12
2019-06-26T13:45:05.265Z,11
2019-06-26T13:50:05.297Z,12
2019-06-26T13:55:05.269Z,10
2019-06-26T14:00:05.278Z,11
2019-06-26T14:05:05.271Z,10
2019-06-26T14:10:05.283Z,11
2019-06-26T14:15:05.285Z,11
2019-06-26T14:20:05.273Z,13
2019-06-26T14:25:05.276Z,11
2019-06-26T14:30:05.282Z,11
2019-06-26T14:35:05.290Z,11
2019-06-26T14:40:05.286Z,13
2019-06-26T14:45:05.289Z,12
2019-06-26T14:50:05.289Z,12
2019-06-26T14:55:05.293Z,11
2019-06-26T15:00:05.288Z,14
2019-06-26T15:05:05.291Z,14
2019-06-26T15:10:05.294Z,15
2019-06-26T15:15:05.293Z,12
2019-06-26T15:20:05.295Z,13
2019-06-26T15:30:05.304Z,14
2019-06-26T15:35:05.301Z,14
2019-06-26T15:40:05.318Z,16
2019-06-26T15:45:05.306Z,14
2019-06-26T15:50:05.304Z,14
2019-06-26T15:55:05.304Z,15
2019-06-26T16:00:05.305Z,14
2019-06-26T16:05:05.307Z,17
2019-06-26T16:10:05.304Z,15
2019-06-26T16:15:05.304Z,15
2019-06-26T16:20:05.316Z,14
2019-06-26T16:25:05.312Z,16
2019-06-26T16:30:05.309Z,14
2019-06-26T16:35:05.304Z,16
2019-06-26T16:40:05.317Z,18
2019-06-26T16:45:05.327Z,16
2019-06-26T16:50:05.310Z,13
2019-06-26T16:55:05.311Z,15
2019-06-26T17:00:09.739Z,17
2019-06-26T17:05:05.342Z,17
2019-06-26T17:10:05.317Z,16
2019-06-26T17:15:05.318Z,14
2019-06-26T17:20:05.320Z,15
2019-06-26T17:25:05.323Z,15
2019-06-26T17:30:05.362Z,15
2019-06-26T17:35:05.327Z,13
2019-06-26T17:40:05.329Z,16
2019-06-26T17:45:05.328Z,15
2019-06-26T17:50:05.334Z,15
2019-06-26T17:55:05.332Z,13
2019-06-26T18:00:05.338Z,14
2019-06-26T18:05:05.334Z,15
2019-06-26T18:10:05.336Z,15
2019-06-26T18:15:05.336Z,12
2019-06-26T18:20:05.353Z,14
2019-06-26T18:25:05.342Z,16
2019-06-26T18:30:05.340Z,15
2019-06-26T18:35:05.336Z,15
2019-06-26T18:40:05.337Z,16
2019-06-26T18:45:05.334Z,16
2019-06-26T18:50:05.336Z,16
2019-06-26T18:55:05.349Z,15
2019-06-26T19:00:05.339Z,16
2019-06-26T19:05:05.344Z,16
2019-06-26T19:10:05.344Z,14
2019-06-26T19:15:05.356Z,15
2019-06-26T19:20:05.355Z,14
2019-06-26T19:25:05.369Z,14
2019-06-26T19:30:05.343Z,15
2019-06-26T19:35:18.286Z,15
2019-06-26T19:40:08.374Z,15
2019-06-26T19:45:05.345Z,15
2019-06-26T19:50:05.349Z,14
2019-06-26T19:55:05.349Z,13
2019-06-26T20:00:05.345Z,15
2019-06-26T20:05:05.345Z,12
2019-06-26T20:10:05.350Z,15
2019-06-26T20:15:05.347Z,13
2019-06-26T20:20:05.350Z,16
2019-06-26T20:25:05.349Z,12
2019-06-26T20:30:08.444Z,14
2019-06-26T20:35:05.345Z,14
2019-06-26T20:40:05.399Z,13
2019-06-26T20:45:05.346Z,16
2019-06-26T20:50:05.352Z,13
2019-06-26T20:55:05.356Z,14
2019-06-26T21:00:05.351Z,14
2019-06-26T21:05:05.363Z,14
2019-06-26T21:10:05.351Z,15
2019-06-26T21:15:05.359Z,15
2019-06-26T21:20:05.360Z,17
2019-06-26T21:25:17.305Z,17
2019-06-26T21:35:05.359Z,16
2019-06-26T21:40:05.363Z,14
2019-06-26T21:45:05.367Z,15
2019-06-26T21:50:05.363Z,15
2019-06-26T21:55:05.365Z,15
2019-06-26T22:00:05.385Z,20
2019-06-26T22:05:05.388Z,18
2019-06-26T22:10:05.371Z,16
2019-06-26T22:15:05.370Z,18
2019-06-26T22:25:05.371Z,17
2019-06-26T22:30:05.380Z,15
2019-06-26T22:35:05.371Z,18
2019-06-26T22:40:05.378Z,16
2019-06-26T22:45:05.432Z,18
2019-06-26T22:50:05.379Z,19
2019-06-26T22:55:05.394Z,16
2019-06-26T23:00:05.382Z,17
2019-06-26T23:05:05.388Z,17
2019-06-26T23:10:05.384Z,17
2019-06-26T23:15:05.383Z,18
2019-06-26T23:20:05.384Z,19
2019-06-26T23:25:05.380Z,16
2019-06-26T23:30:05.380Z,17
2019-06-26T23:35:05.380Z,16
2019-06-26T23:40:05.380Z,16
2019-06-26T23:45:05.398Z,18
2019-06-26T23:50:05.379Z,19
2019-06-26T23:55:05.380Z,18
